メインページ
METAR-TAF:

METAR-TAF

空港 :

ベン・グリオン国際空港

テルアビブ / ベン・グリオン, イスラエル

緯度: 32-00N, 経度: 034-54E, 海抜: 40m

現時点の気象観測

当レポートは15分前の11:20(UTC)に作成
南/南西の風 11kt
気温 19°C
湿度 30%
気圧 1015 hPa
視程10km以上
1,500メートル以下は雲なし、積乱雲なし

METAR: LLBG 141120Z 20011KT CAVOK 19/01 Q1015 NOSIG

時間: 13:35 (11:35 UTC)

予報

当レポートは6時間30分前の05:05(UTC)に作成
予報は14日の 06時(UTC)から 15日の 06時(UTC)まで有効
の風 8kt
視程10km以上
1,500メートル以下は雲なし、積乱雲なし
14日の 09時(UTC)から 14日の 11時(UTC)まで徐々に
南西の風 12kt
14日の 16時(UTC)から 14日の 18時(UTC)まで徐々に
の風 8kt
確率 30%
15日の 02時(UTC)から 15日の 06時(UTC)まで
視程10km以上
高度4500ftの雲はほとんどない, 塔状積雲.
高度5000ftの千切れ雲あり
小雨

TAF: LLBG 140505Z 1406/1506 17008KT CAVOK BECMG 1409/1411 22012KT BECMG 1416/1418 17008KT PROB30 1502/1506 9999 -RA FEW045TCU BKN050 TX18/1412Z TN13/1504Z

4,000以上の空港の気象観測と天気予報(METAR報とTAF報)

利用可能な観測所は地図上に黄色い丸と赤い丸で示す。

丸の上にカーソルを重ねると観測所名を参照できる。

次にクリックすると気象観測と天気予報を参照できる。

マップの切り替え:黒色「×」印の緑ボタンをクリックして拡大、「-」印の緑ボタンをクリックして縮小、緑色の三角印をクリックして隣りの地図に切り替え


METAR-TAF: